Time;durP1;ratioP1;P1;durP2;ratioP2;P2;SDS_P1;SDS_P2;PMS_P1;PMS_P2;Temp;Humidity;BMP_temperature;BMP_pressure;BME280_temperature;BME280_humidity;BME280_pressure;Samples;Min_cycle;Max_cycle;Signal;HPM_P1;HPM_P2
2021/05/04 00:00:05;;;;;;;4.55;4.25;;;10.70;99.90;;;;;;4965955;28;20129;-67
2021/05/04 00:02:31;;;;;;;4.88;4.43;;;10.60;99.90;;;;;;4964330;28;20035;-67
2021/05/04 00:04:56;;;;;;;4.32;4.03;;;10.70;99.90;;;;;;4968921;28;20019;-67
2021/05/04 00:07:22;;;;;;;4.13;3.83;;;10.60;99.90;;;;;;4971256;28;20051;-67
2021/05/04 00:09:48;;;;;;;4.63;4.22;;;10.60;99.90;;;;;;4961087;28;20026;-67
2021/05/04 00:12:13;;;;;;;4.13;3.83;;;10.50;99.90;;;;;;4963332;28;20530;-66
2021/05/04 00:14:40;;;;;;;4.50;4.20;;;10.50;99.90;;;;;;4972332;28;20073;-67
2021/05/04 00:17:05;;;;;;;4.78;4.05;;;10.50;99.90;;;;;;4971469;28;20584;-67
2021/05/04 00:19:31;;;;;;;5.13;4.72;;;10.50;99.90;;;;;;4965929;28;20066;-67
2021/05/04 00:21:57;;;;;;;4.22;3.92;;;10.40;99.90;;;;;;4970346;28;20145;-67
2021/05/04 00:24:23;;;;;;;4.57;4.18;;;10.30;99.90;;;;;;4964469;28;20046;-67
2021/05/04 00:26:48;;;;;;;4.93;4.50;;;10.40;99.90;;;;;;4971564;28;20030;-67
2021/05/04 00:29:14;;;;;;;3.97;3.75;;;10.30;99.90;;;;;;4964561;28;20042;-67
2021/05/04 00:31:40;;;;;;;4.15;3.88;;;10.50;99.90;;;;;;4971124;28;20041;-67
2021/05/04 00:34:06;;;;;;;5.50;4.05;;;10.50;99.90;;;;;;4970818;28;20451;-67
2021/05/04 00:36:31;;;;;;;4.53;4.18;;;10.50;99.90;;;;;;4971238;28;20062;-67
2021/05/04 00:38:57;;;;;;;5.63;3.88;;;10.50;99.90;;;;;;4968454;28;20610;-67
2021/05/04 00:41:23;;;;;;;3.83;3.53;;;10.40;99.90;;;;;;4972931;28;20034;-67
2021/05/04 00:43:49;;;;;;;4.47;4.18;;;10.30;99.90;;;;;;4966324;28;20050;-67
2021/05/04 00:46:15;;;;;;;5.10;4.70;;;10.20;99.90;;;;;;4972160;28;20030;-67
2021/05/04 00:48:41;;;;;;;5.75;4.68;;;10.10;99.90;;;;;;4965853;28;20027;-67
2021/05/04 00:51:07;;;;;;;4.30;4.00;;;10.20;99.90;;;;;;4969877;28;20022;-66
2021/05/04 00:53:33;;;;;;;5.15;4.70;;;10.10;99.90;;;;;;4966482;28;20601;-67
2021/05/04 00:56:00;;;;;;;6.70;4.50;;;10.30;99.90;;;;;;4971138;28;20018;-67
2021/05/04 00:58:26;;;;;;;5.10;4.68;;;10.20;99.90;;;;;;4963790;28;20089;-67
2021/05/04 01:00:52;;;;;;;6.45;5.25;;;10.00;99.90;;;;;;4972378;28;20113;-67
2021/05/04 01:03:18;;;;;;;5.47;4.95;;;10.00;99.90;;;;;;4969294;28;20554;-67
2021/05/04 01:05:44;;;;;;;5.30;4.80;;;10.00;99.90;;;;;;4971519;28;20031;-67
2021/05/04 01:08:09;;;;;;;5.85;4.75;;;9.90;99.90;;;;;;4965899;28;20031;-67
2021/05/04 01:10:35;;;;;;;4.65;4.35;;;10.20;99.90;;;;;;4972166;28;20051;-67
2021/05/04 01:13:01;;;;;;;4.72;4.32;;;10.10;99.90;;;;;;4969235;28;20129;-67
2021/05/04 01:15:28;;;;;;;5.50;4.10;;;10.10;99.90;;;;;;4970074;28;20074;-67
2021/05/04 01:17:54;;;;;;;4.25;3.95;;;10.20;99.90;;;;;;4967776;28;20561;-67
2021/05/04 01:20:19;;;;;;;4.70;4.38;;;10.20;99.90;;;;;;4968885;28;20027;-67
2021/05/04 01:22:45;;;;;;;5.20;4.70;;;10.10;99.90;;;;;;4966227;28;20038;-67
2021/05/04 01:25:11;;;;;;;5.13;4.72;;;9.90;99.90;;;;;;4968129;28;20097;-66
2021/05/04 01:27:37;;;;;;;7.88;4.55;;;9.70;99.90;;;;;;4966114;28;20606;-67
2021/05/04 01:30:04;;;;;;;4.97;4.57;;;9.50;99.90;;;;;;4967329;28;20029;-67
2021/05/04 01:32:30;;;;;;;4.78;4.38;;;9.60;99.90;;;;;;4965975;28;20436;-67
2021/05/04 01:34:57;;;;;;;4.72;4.20;;;9.40;99.90;;;;;;4966101;28;20019;-67
2021/05/04 01:37:23;;;;;;;5.60;5.20;;;9.40;99.90;;;;;;4980211;28;20039;-67
2021/05/04 01:39:50;;;;;;;5.25;4.80;;;9.40;99.90;;;;;;4971024;28;20025;-67
2021/05/04 01:42:18;;;;;;;5.03;4.63;;;9.20;99.90;;;;;;4967237;28;20019;-67
2021/05/04 01:44:44;;;;;;;5.93;4.80;;;9.40;99.90;;;;;;4970694;28;20100;-67
2021/05/04 01:47:11;;;;;;;5.53;5.03;;;9.50;99.90;;;;;;4967764;28;20388;-66
2021/05/04 01:49:37;;;;;;;7.78;4.97;;;9.40;99.90;;;;;;4969438;28;20031;-67
2021/05/04 01:52:04;;;;;;;4.93;4.63;;;9.30;99.90;;;;;;4967954;28;20550;-67
2021/05/04 01:54:30;;;;;;;5.40;5.00;;;9.60;99.90;;;;;;4968490;28;20503;-67
2021/05/04 01:56:58;;;;;;;4.82;4.43;;;9.60;99.90;;;;;;4969403;28;20023;-67
2021/05/04 01:59:25;;;;;;;5.85;5.07;;;9.70;99.90;;;;;;4963526;28;20023;-67
2021/05/04 02:01:51;;;;;;;5.00;4.60;;;9.60;99.90;;;;;;4969866;28;20019;-67
2021/05/04 02:04:17;;;;;;;7.53;4.97;;;9.60;99.90;;;;;;4966945;28;20455;-67
2021/05/04 02:06:43;;;;;;;5.32;4.82;;;9.50;99.90;;;;;;4968614;28;20582;-67
2021/05/04 02:09:10;;;;;;;5.25;4.85;;;9.60;99.90;;;;;;4965519;28;20038;-67
2021/05/04 02:11:36;;;;;;;5.20;4.70;;;9.60;99.90;;;;;;4969615;28;20644;-67
2021/05/04 02:14:02;;;;;;;4.13;3.83;;;9.80;99.90;;;;;;4966752;28;20050;-67
2021/05/04 02:16:28;;;;;;;4.95;4.30;;;9.60;99.90;;;;;;4970352;28;20022;-67
2021/05/04 02:18:55;;;;;;;4.35;4.05;;;9.30;99.90;;;;;;4965570;28;20057;-67
2021/05/04 02:21:21;;;;;;;5.00;4.60;;;9.30;99.90;;;;;;4971030;28;20149;-67
2021/05/04 02:23:47;;;;;;;5.63;5.22;;;9.20;99.90;;;;;;4964876;28;20070;-67
2021/05/04 02:26:16;;;;;;;4.75;4.38;;;9.10;99.90;;;;;;4970893;28;20035;-67
2021/05/04 02:28:41;;;;;;;8.70;4.50;;;9.10;99.90;;;;;;4962443;28;20022;-67
2021/05/04 02:31:08;;;;;;;5.47;5.03;;;9.20;99.90;;;;;;4970718;28;20446;-67
2021/05/04 02:33:35;;;;;;;10.15;5.30;;;9.30;99.90;;;;;;4964193;28;20027;-67
2021/05/04 02:36:01;;;;;;;5.10;4.70;;;9.20;99.90;;;;;;4951805;28;20104;-67
2021/05/04 02:38:29;;;;;;;4.70;4.40;;;9.00;99.90;;;;;;4961088;28;20031;-67
2021/05/04 02:40:55;;;;;;;4.65;4.35;;;9.10;99.90;;;;;;4970780;28;20018;-67
2021/05/04 02:43:20;;;;;;;4.68;4.28;;;9.00;99.90;;;;;;4961897;28;20114;-67
2021/05/04 02:45:46;;;;;;;4.38;4.05;;;9.00;99.90;;;;;;4969254;28;20117;-67
2021/05/04 02:48:12;;;;;;;5.10;4.70;;;9.00;99.90;;;;;;4964578;28;20378;-67
2021/05/04 02:50:37;;;;;;;6.07;4.78;;;9.10;99.90;;;;;;4953829;28;20473;-67
2021/05/04 02:53:03;;;;;;;5.93;5.43;;;8.90;99.90;;;;;;4958068;28;20113;-67
2021/05/04 02:55:29;;;;;;;6.00;5.47;;;9.00;99.90;;;;;;4968962;28;20106;-67
2021/05/04 02:57:55;;;;;;;6.20;5.65;;;8.80;99.90;;;;;;4966950;28;20023;-67
2021/05/04 03:00:21;;;;;;;6.32;5.80;;;8.90;99.90;;;;;;4968116;28;20082;-67
2021/05/04 03:02:47;;;;;;;6.25;5.70;;;9.00;99.90;;;;;;4964416;28;20047;-67
2021/05/04 03:05:13;;;;;;;6.20;5.72;;;9.10;99.90;;;;;;4970694;28;20022;-67
2021/05/04 03:07:38;;;;;;;5.63;4.85;;;9.20;99.90;;;;;;4964176;28;20023;-67
2021/05/04 03:10:05;;;;;;;5.32;4.93;;;9.10;99.90;;;;;;4970380;28;20051;-67
2021/05/04 03:12:31;;;;;;;5.70;5.20;;;9.00;99.90;;;;;;4979383;28;20086;-67
2021/05/04 03:14:57;;;;;;;6.13;5.60;;;9.00;99.90;;;;;;4963398;28;20018;-67
2021/05/04 03:17:23;;;;;;;7.85;5.85;;;8.90;99.90;;;;;;4965011;28;20114;-67
2021/05/04 03:19:48;;;;;;;6.53;5.80;;;8.70;99.90;;;;;;4969637;28;20098;-67
2021/05/04 03:22:14;;;;;;;6.05;5.65;;;8.70;99.90;;;;;;4965922;28;20026;-67
2021/05/04 03:24:40;;;;;;;6.18;5.57;;;8.80;99.90;;;;;;4968257;28;20023;-67
2021/05/04 03:27:06;;;;;;;6.72;6.22;;;8.90;99.90;;;;;;4967348;28;20114;-67
2021/05/04 03:29:32;;;;;;;6.63;5.97;;;8.80;99.90;;;;;;4967563;28;20023;-67
2021/05/04 03:31:58;;;;;;;6.65;6.05;;;8.70;99.90;;;;;;4968096;28;20431;-67
2021/05/04 03:34:24;;;;;;;6.25;5.75;;;8.60;99.90;;;;;;4958992;28;20030;-67
2021/05/04 03:36:49;;;;;;;6.13;5.47;;;8.70;99.90;;;;;;4967583;28;20109;-67
2021/05/04 03:39:15;;;;;;;7.47;5.80;;;8.90;99.90;;;;;;4966237;28;20471;-67
2021/05/04 03:41:41;;;;;;;6.53;5.82;;;8.90;99.90;;;;;;4972147;28;20569;-67
2021/05/04 03:44:06;;;;;;;5.88;5.38;;;9.00;99.90;;;;;;4969511;28;20058;-67
2021/05/04 03:46:32;;;;;;;6.93;5.15;;;8.90;99.90;;;;;;4972678;28;20046;-67
2021/05/04 03:48:57;;;;;;;5.68;5.13;;;8.70;99.90;;;;;;4964869;28;20073;-67
2021/05/04 03:51:23;;;;;;;5.95;5.45;;;8.60;99.90;;;;;;4973764;28;20027;-67
2021/05/04 03:53:49;;;;;;;6.00;5.60;;;8.70;99.90;;;;;;4968267;28;20073;-66
2021/05/04 03:56:14;;;;;;;5.97;5.47;;;8.70;99.90;;;;;;4974018;28;20050;-67
2021/05/04 03:58:40;;;;;;;8.63;5.18;;;8.90;99.90;;;;;;4961942;28;20046;-66
2021/05/04 04:01:06;;;;;;;5.78;5.38;;;8.90;99.90;;;;;;4973818;28;20073;-67
2021/05/04 04:03:31;;;;;;;6.30;5.90;;;8.30;99.90;;;;;;4963571;28;20054;-67
2021/05/04 04:05:57;;;;;;;6.30;5.72;;;8.40;99.90;;;;;;4969738;28;20031;-66
2021/05/04 04:08:23;;;;;;;6.32;5.82;;;8.50;99.90;;;;;;4967818;28;20031;-66
2021/05/04 04:10:49;;;;;;;6.80;5.97;;;8.40;99.90;;;;;;4973703;28;20418;-67
2021/05/04 04:13:15;;;;;;;5.95;5.45;;;8.20;99.90;;;;;;4970093;28;20538;-67
2021/05/04 04:15:41;;;;;;;9.88;5.97;;;8.40;99.90;;;;;;4971321;28;20759;-67
2021/05/04 04:18:07;;;;;;;6.80;6.05;;;8.50;99.90;;;;;;4969403;28;20078;-66
2021/05/04 04:20:33;;;;;;;7.53;6.90;;;8.40;99.90;;;;;;4969785;28;20027;-67
2021/05/04 04:22:58;;;;;;;7.82;5.70;;;8.20;99.90;;;;;;4968223;28;20023;-67
2021/05/04 04:25:24;;;;;;;7.07;6.43;;;8.10;99.90;;;;;;4969277;28;20384;-67
2021/05/04 04:27:50;;;;;;;6.93;6.30;;;8.30;99.90;;;;;;4967417;28;20041;-67
2021/05/04 04:30:16;;;;;;;6.22;5.72;;;8.40;99.90;;;;;;4968662;28;20383;-67
2021/05/04 04:32:43;;;;;;;6.72;5.85;;;8.40;99.90;;;;;;4966606;28;20043;-67
2021/05/04 04:35:10;;;;;;;6.65;5.85;;;7.90;99.90;;;;;;4973103;28;20019;-67
2021/05/04 04:37:36;;;;;;;5.45;4.95;;;8.00;99.90;;;;;;4965896;28;20035;-67
2021/05/04 04:40:03;;;;;;;11.93;4.97;;;8.00;99.90;;;;;;4972220;28;20045;-67
2021/05/04 04:42:29;;;;;;;5.97;5.13;;;7.80;99.90;;;;;;4967078;28;20035;-67
2021/05/04 04:44:55;;;;;;;6.18;4.50;;;7.90;99.90;;;;;;4972913;28;20027;-67
2021/05/04 04:47:21;;;;;;;4.55;4.20;;;8.10;99.90;;;;;;4968027;28;20023;-67
2021/05/04 04:49:47;;;;;;;5.50;4.63;;;8.30;99.90;;;;;;4971678;28;20085;-67
2021/05/04 04:52:13;;;;;;;5.05;4.43;;;8.30;99.90;;;;;;4967891;28;20496;-66
2021/05/04 04:54:39;;;;;;;5.00;4.60;;;8.20;99.90;;;;;;4970451;28;20070;-66
2021/05/04 04:57:05;;;;;;;4.45;4.15;;;8.30;99.90;;;;;;4970151;28;20038;-67
2021/05/04 04:59:32;;;;;;;5.50;4.65;;;8.30;99.90;;;;;;4968249;28;20121;-67
2021/05/04 05:01:58;;;;;;;6.20;4.45;;;8.20;99.90;;;;;;4959859;28;20019;-67
2021/05/04 05:04:24;;;;;;;5.05;4.65;;;8.10;99.90;;;;;;4956566;28;20039;-67
2021/05/04 05:06:50;;;;;;;4.80;4.30;;;8.20;99.90;;;;;;4958472;28;20404;-67
2021/05/04 05:09:16;;;;;;;6.47;5.15;;;8.20;99.90;;;;;;4969234;28;20029;-67
2021/05/04 05:11:41;;;;;;;5.65;4.63;;;8.00;99.90;;;;;;4970549;28;20051;-67
2021/05/04 05:14:08;;;;;;;5.35;4.90;;;8.00;99.90;;;;;;4967986;28;20062;-66
2021/05/04 05:16:35;;;;;;;5.45;4.80;;;7.90;99.90;;;;;;4971567;28;20023;-67
2021/05/04 05:19:01;;;;;;;7.38;4.90;;;8.00;99.90;;;;;;4964030;28;20031;-67
2021/05/04 05:21:28;;;;;;;8.30;4.93;;;8.30;99.90;;;;;;4966915;28;20030;-65
2021/05/04 05:23:54;;;;;;;5.55;5.05;;;8.60;99.90;;;;;;4969655;28;20038;-66
2021/05/04 05:26:20;;;;;;;11.38;5.55;;;8.20;99.90;;;;;;4968915;28;20567;-66
2021/05/04 05:28:46;;;;;;;8.07;4.90;;;8.10;99.90;;;;;;4968735;28;20023;-66
2021/05/04 05:31:12;;;;;;;8.82;5.50;;;8.30;99.90;;;;;;4969164;28;20070;-65
2021/05/04 05:33:38;;;;;;;11.57;5.55;;;8.30;99.90;;;;;;4968575;28;20035;-66
2021/05/04 05:36:04;;;;;;;11.20;5.35;;;8.10;99.90;;;;;;4968860;28;20031;-66
2021/05/04 05:38:30;;;;;;;6.18;5.55;;;8.40;99.90;;;;;;4966509;28;20652;-66
2021/05/04 05:40:56;;;;;;;6.40;5.47;;;8.70;99.90;;;;;;4958689;28;20027;-66
2021/05/04 05:43:23;;;;;;;6.57;5.95;;;8.90;99.90;;;;;;4958046;28;20509;-66
2021/05/04 05:45:49;;;;;;;6.18;5.60;;;8.80;99.90;;;;;;4954557;28;20027;-66
2021/05/04 05:48:15;;;;;;;8.38;6.15;;;8.50;99.90;;;;;;4966366;28;20497;-66
2021/05/04 05:50:41;;;;;;;6.25;5.35;;;8.60;99.90;;;;;;4957482;28;20019;-66
2021/05/04 05:53:06;;;;;;;5.40;5.10;;;8.60;99.90;;;;;;4959725;28;20039;-67
2021/05/04 05:55:32;;;;;;;7.35;5.40;;;8.70;99.90;;;;;;4970379;28;20511;-66
2021/05/04 05:57:59;;;;;;;6.13;5.63;;;8.90;99.90;;;;;;4969116;28;20434;-66
2021/05/04 06:00:25;;;;;;;5.70;5.30;;;8.90;99.90;;;;;;4967537;28;20014;-66
2021/05/04 06:02:51;;;;;;;5.45;5.05;;;8.80;99.90;;;;;;4969608;28;20138;-67
2021/05/04 06:05:17;;;;;;;6.43;5.82;;;9.10;99.90;;;;;;4965679;28;20106;-67
2021/05/04 06:07:43;;;;;;;22.33;5.32;;;8.70;99.90;;;;;;4966434;28;20037;-67
2021/05/04 06:10:09;;;;;;;9.48;5.38;;;8.70;99.90;;;;;;4971093;28;20047;-66
2021/05/04 06:12:35;;;;;;;5.32;4.93;;;9.10;99.90;;;;;;4968895;28;20035;-67
2021/05/04 06:15:01;;;;;;;6.93;5.40;;;8.90;99.90;;;;;;4969940;28;20022;-67
2021/05/04 06:17:26;;;;;;;6.60;5.65;;;9.00;99.90;;;;;;4964424;28;20031;-67
2021/05/04 06:19:52;;;;;;;8.60;5.18;;;9.30;99.90;;;;;;4970351;28;20135;-66
2021/05/04 06:22:18;;;;;;;8.18;5.35;;;9.70;99.90;;;;;;4966146;28;20551;-67
2021/05/04 06:24:45;;;;;;;5.35;4.95;;;9.60;99.90;;;;;;4969070;28;20031;-66
2021/05/04 06:27:11;;;;;;;4.88;4.57;;;9.60;99.90;;;;;;4968102;28;20031;-66
2021/05/04 06:29:37;;;;;;;8.77;5.15;;;9.50;99.90;;;;;;4965254;28;20484;-66
2021/05/04 06:32:09;;;;;;;10.43;5.70;;;9.30;99.90;;;;;;4969193;28;20177;-67
2021/05/04 06:34:35;;;;;;;5.25;4.75;;;9.40;99.90;;;;;;4968009;28;20025;-66
2021/05/04 06:37:01;;;;;;;7.53;5.10;;;9.60;99.90;;;;;;4968299;28;20039;-66
2021/05/04 06:39:26;;;;;;;13.70;4.93;;;9.70;99.90;;;;;;4962892;28;20476;-66
2021/05/04 06:41:52;;;;;;;10.70;4.60;;;9.90;99.90;;;;;;4967999;28;20026;-67
2021/05/04 06:44:18;;;;;;;7.60;4.55;;;10.10;99.90;;;;;;4960585;28;20118;-67
2021/05/04 06:46:43;;;;;;;7.60;4.53;;;10.20;99.90;;;;;;4956978;28;20539;-67
2021/05/04 06:49:09;;;;;;;4.50;4.00;;;10.20;99.90;;;;;;4962679;28;20027;-67
2021/05/04 06:51:35;;;;;;;7.93;4.63;;;10.30;99.90;;;;;;4954914;28;20024;-67
2021/05/04 06:54:02;;;;;;;6.60;4.07;;;10.40;99.90;;;;;;4969333;28;20458;-67
2021/05/04 06:56:28;;;;;;;9.70;4.32;;;10.50;99.90;;;;;;4967830;28;20054;-68
2021/05/04 06:58:53;;;;;;;9.00;4.60;;;10.50;99.90;;;;;;4964602;28;20058;-68
2021/05/04 07:01:19;;;;;;;6.50;4.45;;;10.70;99.90;;;;;;4966442;28;20078;-67
2021/05/04 07:03:45;;;;;;;4.95;4.50;;;10.90;99.90;;;;;;4963513;28;20077;-67
2021/05/04 07:06:10;;;;;;;8.30;4.38;;;11.00;99.90;;;;;;4966515;28;20030;-67
2021/05/04 07:08:36;;;;;;;10.38;4.28;;;11.00;99.90;;;;;;4961057;28;20037;-67
2021/05/04 07:11:02;;;;;;;5.60;4.15;;;11.20;99.90;;;;;;4958239;28;20047;-67
2021/05/04 07:13:27;;;;;;;6.80;4.63;;;11.30;99.90;;;;;;4967173;28;20077;-67
2021/05/04 07:15:53;;;;;;;5.45;4.45;;;11.50;99.90;;;;;;4963995;28;20030;-67
2021/05/04 07:18:20;;;;;;;7.32;4.07;;;11.50;99.90;;;;;;4965820;28;20106;-67
2021/05/04 07:20:46;;;;;;;6.90;4.78;;;11.70;99.90;;;;;;4978778;28;20917;-67
2021/05/04 07:23:13;;;;;;;7.30;4.38;;;11.80;99.90;;;;;;4965579;28;20042;-67
2021/05/04 07:25:40;;;;;;;8.73;4.80;;;12.00;99.90;;;;;;4970814;28;20069;-67
2021/05/04 07:28:06;;;;;;;7.05;4.28;;;12.10;99.90;;;;;;4970847;28;20470;-67
2021/05/04 07:30:33;;;;;;;10.32;4.20;;;12.30;99.90;;;;;;4974388;28;20105;-67
2021/05/04 07:33:00;;;;;;;7.50;4.40;;;12.50;99.90;;;;;;4968716;28;20039;-67
2021/05/04 07:35:26;;;;;;;12.57;4.85;;;12.70;99.90;;;;;;4967220;28;20051;-67
2021/05/04 07:37:52;;;;;;;9.40;4.15;;;12.80;99.90;;;;;;4967801;28;20034;-67
2021/05/04 07:40:18;;;;;;;10.20;4.07;;;13.10;99.90;;;;;;4967823;28;20502;-67
2021/05/04 07:42:44;;;;;;;7.03;3.72;;;13.30;99.90;;;;;;4970799;28;20033;-66
2021/05/04 07:45:11;;;;;;;6.43;4.20;;;13.30;99.90;;;;;;4972452;28;20471;-66
2021/05/04 07:47:36;;;;;;;8.38;4.25;;;13.10;99.90;;;;;;4970087;28;20419;-67
2021/05/04 07:50:04;;;;;;;8.48;4.47;;;13.30;99.90;;;;;;4970959;28;20035;-64
2021/05/04 07:52:29;;;;;;;6.10;4.32;;;13.40;99.90;;;;;;4969247;28;20519;-63
2021/05/04 07:54:55;;;;;;;7.32;4.30;;;13.50;99.90;;;;;;4973352;28;20033;-64
2021/05/04 07:57:21;;;;;;;4.30;3.53;;;13.80;99.90;;;;;;4969569;28;20046;-64
2021/05/04 07:59:48;;;;;;;5.40;4.90;;;13.80;99.90;;;;;;4968385;28;20042;-64
2021/05/04 08:02:14;;;;;;;4.47;4.05;;;13.90;99.90;;;;;;4970041;28;20054;-64
2021/05/04 08:04:40;;;;;;;7.85;4.65;;;14.10;99.90;;;;;;4970913;28;20022;-64
2021/05/04 08:07:09;;;;;;;4.60;4.20;;;14.30;99.90;;;;;;4970513;28;20027;-64
2021/05/04 08:09:35;;;;;;;4.88;4.32;;;14.60;99.90;;;;;;4967815;28;20030;-64
2021/05/04 08:12:01;;;;;;;9.55;4.30;;;14.80;99.90;;;;;;4971730;28;20388;-64
2021/05/04 08:14:27;;;;;;;5.70;4.07;;;14.80;99.90;;;;;;4969684;28;20077;-64
2021/05/04 08:16:54;;;;;;;7.03;3.70;;;14.90;99.90;;;;;;4971306;28;20023;-64
2021/05/04 08:19:19;;;;;;;4.45;3.30;;;14.70;99.90;;;;;;4965086;28;20039;-64
2021/05/04 08:21:45;;;;;;;4.25;3.65;;;14.70;99.90;;;;;;4968945;28;20022;-63
2021/05/04 08:24:12;;;;;;;4.60;4.20;;;14.60;99.90;;;;;;4966872;28;20550;-64
2021/05/04 08:26:38;;;;;;;5.68;3.70;;;14.60;99.90;;;;;;4967566;28;20030;-64
2021/05/04 08:29:04;;;;;;;6.53;3.60;;;14.50;99.90;;;;;;4968250;28;20027;-64
2021/05/04 08:31:30;;;;;;;4.32;3.88;;;14.60;99.90;;;;;;4965612;28;20026;-64
2021/05/04 08:33:55;;;;;;;3.53;3.22;;;14.80;99.90;;;;;;4966795;28;20121;-64
2021/05/04 08:36:21;;;;;;;4.00;3.60;;;14.90;99.90;;;;;;4967136;28;20030;-64
2021/05/04 08:38:47;;;;;;;5.63;2.92;;;15.10;99.90;;;;;;4966828;28;20031;-64
2021/05/04 08:41:15;;;;;;;4.00;3.75;;;15.20;99.90;;;;;;4964110;28;20098;-64
2021/05/04 08:43:47;;;;;;;3.55;3.25;;;15.30;99.90;;;;;;4966744;28;20532;-65
2021/05/04 08:46:14;;;;;;;5.40;3.75;;;15.80;99.90;;;;;;4969805;28;20042;-64
2021/05/04 08:48:44;;;;;;;5.47;3.60;;;15.80;99.90;;;;;;4966466;28;20023;-64
2021/05/04 08:51:12;;;;;;;3.08;2.75;;;15.70;99.90;;;;;;4972235;28;20030;-64
2021/05/04 08:53:38;;;;;;;5.50;3.05;;;15.70;99.90;;;;;;4966761;28;20588;-64
2021/05/04 08:56:05;;;;;;;3.28;2.97;;;15.80;99.90;;;;;;4966908;28;20027;-64
2021/05/04 08:58:33;;;;;;;10.68;5.40;;;15.70;99.90;;;;;;4966655;28;20034;-64
2021/05/04 09:00:59;;;;;;;36.72;13.15;;;15.90;99.90;;;;;;4972457;28;20455;-64
2021/05/04 09:06:06;;;;;;;23.73;10.43;;;15.80;99.90;;;;;;4972021;28;20042;-64
2021/05/04 09:08:39;;;;;;;24.98;10.48;;;15.80;99.90;;;;;;4966145;28;20031;-64
2021/05/04 09:11:28;;;;;;;14.88;6.60;;;16.10;99.90;;;;;;4967580;28;20057;-64
2021/05/04 09:14:01;;;;;;;12.82;7.15;;;16.60;99.90;;;;;;4966130;28;20039;-64
2021/05/04 09:19:08;;;;;;;23.55;7.97;;;16.60;99.90;;;;;;4967498;28;20042;-65
2021/05/04 09:21:36;;;;;;;4.93;3.17;;;16.90;99.90;;;;;;4970567;28;20677;-64
2021/05/04 09:24:23;;;;;;;3.35;2.60;;;17.10;99.90;;;;;;4966524;28;20031;-64
2021/05/04 09:26:56;;;;;;;3.13;2.60;;;17.10;99.90;;;;;;4957502;28;20027;-64
2021/05/04 09:29:28;;;;;;;2.78;2.38;;;17.20;99.90;;;;;;4967906;28;20030;-64
2021/05/04 09:31:54;;;;;;;3.05;2.67;;;17.20;99.90;;;;;;4969430;28;20605;-63
2021/05/04 09:34:20;;;;;;;3.63;2.55;;;17.40;99.90;;;;;;4970711;28;20058;-63
2021/05/04 09:36:51;;;;;;;5.18;2.75;;;17.40;99.90;;;;;;4969979;28;20046;-64
2021/05/04 09:39:27;;;;;;;7.57;3.17;;;17.40;99.90;;;;;;4968911;28;20058;-64
2021/05/04 09:41:55;;;;;;;4.40;2.72;;;17.80;99.90;;;;;;4968622;28;20558;-64
2021/05/04 09:44:46;;;;;;;4.97;2.47;;;18.10;99.90;;;;;;4965767;28;20058;-65
2021/05/04 09:47:12;;;;;;;4.03;2.72;;;18.00;99.90;;;;;;4968436;28;20015;-64
2021/05/04 09:49:40;;;;;;;2.95;2.75;;;18.30;99.90;;;;;;4967279;28;20480;-64
2021/05/04 09:54:59;;;;;;;;;;;18.30;99.90;;;;;;4969824;28;20491;-64
2021/05/04 09:57:40;;;;;;;4.68;2.58;;;18.30;99.90;;;;;;4968903;28;19953;-64
2021/05/04 10:00:11;;;;;;;2.80;2.60;;;18.30;99.90;;;;;;4965499;28;20124;-64
2021/05/04 10:02:38;;;;;;;3.78;2.67;;;18.50;99.90;;;;;;4963136;28;20035;-65
2021/05/04 10:05:06;;;;;;;2.85;2.13;;;18.30;99.90;;;;;;4962684;28;20101;-64
2021/05/04 10:07:32;;;;;;;4.43;2.60;;;18.50;99.90;;;;;;4954155;28;20019;-64
2021/05/04 10:10:02;;;;;;;3.90;2.72;;;18.80;99.90;;;;;;4964680;28;20053;-64
2021/05/04 10:12:29;;;;;;;4.93;2.70;;;18.90;99.90;;;;;;4955651;28;20035;-64
2021/05/04 10:14:59;;;;;;;2.42;2.22;;;18.90;99.90;;;;;;4968660;28;20031;-64
2021/05/04 10:17:25;;;;;;;5.85;2.90;;;19.20;99.90;;;;;;4969317;28;20063;-64
2021/05/04 10:19:52;;;;;;;5.43;2.72;;;19.40;99.90;;;;;;4962400;28;20182;-65
2021/05/04 10:22:18;;;;;;;6.15;2.25;;;19.40;99.90;;;;;;4966598;28;20030;-64
2021/05/04 10:24:45;;;;;;;5.15;2.58;;;19.50;99.90;;;;;;4968549;28;20634;-65
2021/05/04 10:27:11;;;;;;;6.00;2.33;;;19.00;99.90;;;;;;4968636;28;20481;-64
2021/05/04 10:29:37;;;;;;;5.95;2.60;;;19.30;99.90;;;;;;4965076;28;20376;-64
2021/05/04 10:32:05;;;;;;;4.88;2.40;;;19.60;99.90;;;;;;4967615;28;20047;-64
2021/05/04 10:34:33;;;;;;;3.92;2.45;;;19.70;99.90;;;;;;4969078;28;20507;-64
2021/05/04 10:37:03;;;;;;;5.15;2.20;;;19.90;99.90;;;;;;4965310;28;20019;-64
2021/05/04 10:39:37;;;;;;;5.53;2.63;;;20.20;99.90;;;;;;4964923;28;20082;-65
2021/05/04 10:42:05;;;;;;;3.63;2.60;;;19.80;99.90;;;;;;4964594;28;20027;-64
2021/05/04 10:44:51;;;;;;;3.80;3.00;;;20.20;99.90;;;;;;4960217;28;20050;-64
2021/05/04 10:47:39;;;;;;;5.80;2.30;;;19.60;99.90;;;;;;4956707;28;20026;-64
2021/05/04 10:56:59;;;;;;;3.35;2.20;;;20.20;99.90;;;;;;4961792;28;20403;-64
2021/05/04 10:59:24;;;;;;;3.28;2.22;;;20.30;99.90;;;;;;4980045;28;20121;-64
2021/05/04 11:02:17;;;;;;;4.43;2.40;;;20.70;99.90;;;;;;4988098;28;20452;-64
2021/05/04 11:04:48;;;;;;;2.90;2.70;;;20.90;99.90;;;;;;4976690;28;20534;-64
2021/05/04 11:07:34;;;;;;;7.03;2.33;;;21.10;99.90;;;;;;4972568;28;20077;-65
2021/05/04 11:10:13;;;;;;;2.55;2.35;;;21.10;99.90;;;;;;4975743;28;20110;-65
2021/05/04 11:12:39;;;;;;;2.60;2.15;;;21.00;99.90;;;;;;4967241;28;20112;-64
2021/05/04 11:15:38;;;;;;;2.72;2.53;;;21.30;99.90;;;;;;4969494;28;20150;-64
2021/05/04 11:18:04;;;;;;;3.50;1.90;;;21.40;99.90;;;;;;4969729;28;20058;-64
2021/05/04 11:20:36;;;;;;;3.10;1.83;;;21.90;99.90;;;;;;4967690;28;20050;-64
2021/05/04 11:23:02;;;;;;;2.50;1.40;;;21.70;99.90;;;;;;4970566;28;20027;-64
2021/05/04 11:25:40;;;;;;;2.17;2.08;;;21.50;99.50;;;;;;4969091;28;20033;-64
2021/05/04 11:28:06;;;;;;;1.92;1.58;;;21.40;99.90;;;;;;4972242;28;20027;-64
2021/05/04 11:30:37;;;;;;;1.63;1.48;;;21.60;99.90;;;;;;4966353;28;20636;-64
2021/05/04 11:33:28;;;;;;;2.08;1.60;;;21.30;99.40;;;;;;4968094;28;20042;-64
2021/05/04 11:35:56;;;;;;;3.58;3.28;;;21.20;99.90;;;;;;4987393;28;20046;-64
2021/05/04 11:38:23;;;;;;;4.25;3.25;;;21.40;99.90;;;;;;4983531;28;20541;-65
2021/05/04 11:40:49;;;;;;;6.18;5.13;;;21.60;99.90;;;;;;4973061;28;20475;-64
2021/05/04 11:43:17;;;;;;;6.00;2.05;;;21.70;99.90;;;;;;4969606;28;20036;-64
2021/05/04 11:45:43;;;;;;;2.92;1.90;;;22.30;99.90;;;;;;4973209;28;20027;-64
2021/05/04 11:48:10;;;;;;;4.03;3.63;;;21.70;99.90;;;;;;4972748;28;20034;-64
2021/05/04 11:50:38;;;;;;;2.83;2.40;;;22.00;99.90;;;;;;4968939;28;20105;-64
2021/05/04 11:53:09;;;;;;;5.00;2.72;;;22.20;99.90;;;;;;4968075;28;20065;-65
2021/05/04 11:55:44;;;;;;;7.25;6.55;;;22.80;99.90;;;;;;4962307;28;20037;-66
2021/05/04 11:58:21;;;;;;;6.47;2.30;;;22.80;99.90;;;;;;4968325;28;20033;-66
2021/05/04 12:00:47;;;;;;;6.35;5.78;;;22.80;99.90;;;;;;4971567;28;20027;-65
2021/05/04 12:03:15;;;;;;;4.32;2.42;;;22.70;99.70;;;;;;4973230;28;20038;-65
2021/05/04 12:05:43;;;;;;;2.67;1.70;;;22.50;99.50;;;;;;4965172;28;20020;-65
2021/05/04 12:08:09;;;;;;;3.40;3.10;;;22.30;99.80;;;;;;4984138;28;20493;-65
2021/05/04 12:10:49;;;;;;;3.92;2.10;;;22.70;99.90;;;;;;4969697;28;20527;-65
2021/05/04 12:13:23;;;;;;;4.40;2.20;;;23.20;99.90;;;;;;4977105;28;20034;-65
2021/05/04 12:15:54;;;;;;;2.08;1.80;;;23.00;98.10;;;;;;4973040;28;20015;-65
2021/05/04 12:18:23;;;;;;;2.28;1.98;;;23.10;99.90;;;;;;4969595;28;20113;-65
2021/05/04 12:20:56;;;;;;;5.50;2.22;;;22.80;98.80;;;;;;4975141;28;20023;-65
2021/05/04 12:23:27;;;;;;;3.65;2.20;;;22.60;99.40;;;;;;4971460;28;20102;-65
2021/05/04 12:25:59;;;;;;;2.72;2.47;;;22.90;98.80;;;;;;4963879;28;20595;-65
2021/05/04 12:28:31;;;;;;;3.63;2.58;;;23.10;99.40;;;;;;4968257;28;20038;-65
2021/05/04 12:31:08;;;;;;;5.85;2.17;;;23.30;98.40;;;;;;4963097;28;20019;-65
2021/05/04 12:33:36;;;;;;;6.05;2.53;;;23.50;99.40;;;;;;4974748;28;20077;-65
2021/05/04 12:36:07;;;;;;;2.30;2.10;;;23.20;98.80;;;;;;4967201;28;20066;-65
2021/05/04 12:38:56;;;;;;;3.55;2.40;;;22.60;98.50;;;;;;4973146;28;20027;-65
2021/05/04 12:41:34;;;;;;;3.47;1.92;;;22.80;99.00;;;;;;4962372;28;20023;-65
2021/05/04 12:46:53;;;;;;;2.13;1.57;;;23.40;99.80;;;;;;4959272;28;20029;-65
2021/05/04 12:49:19;;;;;;;3.85;1.88;;;23.50;98.80;;;;;;4970132;28;20038;-65
2021/05/04 12:51:49;;;;;;;3.70;2.10;;;23.80;98.70;;;;;;4970562;28;20046;-65
2021/05/04 12:54:21;;;;;;;2.13;1.92;;;23.60;98.50;;;;;;4972903;28;20403;-65
2021/05/04 12:56:57;;;;;;;2.63;1.95;;;23.60;99.30;;;;;;4966963;28;20038;-65
2021/05/04 12:59:30;;;;;;;3.13;2.65;;;23.10;98.80;;;;;;4965475;28;20087;-65
2021/05/04 13:02:02;;;;;;;1.85;1.75;;;23.30;99.40;;;;;;4969101;28;20165;-64
2021/05/04 13:07:32;;;;;;;2.80;2.35;;;23.30;99.00;;;;;;4965748;28;20039;-65
2021/05/04 13:18:13;;;;;;;5.93;2.20;;;24.10;96.90;;;;;;4965416;28;20407;-65
2021/05/04 13:21:16;;;;;;;5.40;2.65;;;24.10;97.40;;;;;;4945358;28;20081;-63